createdAt,value
2018-03-16T00:01:20.817Z,25.73
2018-03-16T00:03:48.212Z,29.07
2018-03-16T00:06:15.633Z,26.43
2018-03-16T00:08:43.038Z,29.47
2018-03-16T00:11:10.437Z,24.70
2018-03-16T00:13:37.849Z,32.63
2018-03-16T00:16:05.250Z,34.70
2018-03-16T00:18:32.644Z,29.93
2018-03-16T00:21:00.889Z,25.47
2018-03-16T00:23:28.294Z,18.30
2018-03-16T00:25:55.701Z,22.57
2018-03-16T00:28:23.117Z,20.60
2018-03-16T00:30:50.532Z,17.33
2018-03-16T00:33:17.928Z,19.40
2018-03-16T00:35:45.340Z,19.57
2018-03-16T00:38:12.742Z,17.33
2018-03-16T00:40:40.136Z,22.30
2018-03-16T00:43:07.552Z,22.10
2018-03-16T00:45:34.952Z,17.47
2018-03-16T00:48:02.347Z,15.03
2018-03-16T00:50:29.775Z,16.33
2018-03-16T00:52:57.168Z,14.07
2018-03-16T00:55:24.574Z,13.10
2018-03-16T00:57:52.000Z,11.80
2018-03-16T01:00:19.400Z,12.37
2018-03-16T01:02:46.804Z,13.50
2018-03-16T01:05:14.214Z,12.20
2018-03-16T01:07:41.612Z,13.83
2018-03-16T01:10:09.008Z,12.63
2018-03-16T01:12:36.417Z,13.77
2018-03-16T01:15:03.847Z,18.20
2018-03-16T01:17:31.240Z,12.27
2018-03-16T01:19:58.649Z,11.03
2018-03-16T01:22:26.040Z,11.20
2018-03-16T01:24:53.443Z,14.60
2018-03-16T01:27:20.844Z,18.43
2018-03-16T01:29:48.240Z,23.73
2018-03-16T01:32:15.776Z,15.60
2018-03-16T01:34:43.189Z,10.10
2018-03-16T01:37:10.572Z,14.97
2018-03-16T01:39:37.967Z,17.93
2018-03-16T01:42:05.376Z,17.33
2018-03-16T01:44:32.805Z,14.07
2018-03-16T01:47:00.195Z,8.83
2018-03-16T01:49:27.637Z,7.53
2018-03-16T01:51:55.053Z,10.03
2018-03-16T01:54:22.453Z,5.90
2018-03-16T01:56:49.865Z,4.73
2018-03-16T01:59:17.257Z,5.10
2018-03-16T02:01:44.673Z,4.70
2018-03-16T02:04:12.086Z,4.53
2018-03-16T02:06:39.471Z,4.23
2018-03-16T02:09:06.869Z,4.53
2018-03-16T02:11:34.277Z,5.00
2018-03-16T02:14:01.671Z,4.47
2018-03-16T02:16:29.072Z,9.13
2018-03-16T02:18:56.482Z,5.10
2018-03-16T02:21:23.873Z,9.97
2018-03-16T02:23:51.253Z,4.70
2018-03-16T02:26:18.656Z,4.50
2018-03-16T02:28:46.063Z,12.50
2018-03-16T02:31:13.466Z,16.47
2018-03-16T02:33:40.874Z,15.53
2018-03-16T02:36:08.256Z,7.60
2018-03-16T02:38:35.652Z,15.70
2018-03-16T02:41:03.061Z,11.63
2018-03-16T02:43:30.447Z,17.23
2018-03-16T02:45:57.841Z,18.60
2018-03-16T02:48:25.247Z,5.30
2018-03-16T02:50:52.636Z,12.53
2018-03-16T02:53:20.037Z,5.80
2018-03-16T02:55:47.447Z,9.50
2018-03-16T02:58:14.837Z,10.90
2018-03-16T03:00:42.221Z,7.27
2018-03-16T03:03:09.626Z,7.00
2018-03-16T03:05:37.038Z,12.03
2018-03-16T03:08:04.420Z,4.70
2018-03-16T03:10:31.829Z,9.30
2018-03-16T03:12:59.217Z,9.53
2018-03-16T03:15:26.600Z,8.33
2018-03-16T03:17:54.018Z,9.90
2018-03-16T03:20:21.412Z,6.50
2018-03-16T03:22:48.797Z,9.10
2018-03-16T03:25:16.205Z,10.67
2018-03-16T03:27:43.601Z,22.53
2018-03-16T03:30:11.007Z,12.33
2018-03-16T03:32:38.421Z,14.57
2018-03-16T03:35:05.816Z,16.33
2018-03-16T03:37:33.208Z,12.40
2018-03-16T03:40:00.628Z,15.13
2018-03-16T03:42:28.012Z,23.53
2018-03-16T03:44:55.405Z,13.83
2018-03-16T03:47:22.813Z,16.07
2018-03-16T03:49:50.208Z,20.00
2018-03-16T03:52:17.601Z,23.70
2018-03-16T03:54:45.007Z,8.83
2018-03-16T03:57:12.400Z,13.00
2018-03-16T03:59:39.789Z,8.70
2018-03-16T04:02:07.194Z,9.27
2018-03-16T04:04:34.589Z,15.33
2018-03-16T04:07:01.980Z,29.83
2018-03-16T04:09:29.380Z,15.63
2018-03-16T04:11:56.777Z,8.27
2018-03-16T04:14:24.168Z,5.20
2018-03-16T04:16:51.581Z,15.23
2018-03-16T04:19:18.985Z,13.93
2018-03-16T04:21:46.371Z,5.73
2018-03-16T04:24:13.773Z,9.80
2018-03-16T04:26:41.160Z,13.60
2018-03-16T04:29:08.569Z,12.82
2018-03-16T04:31:35.977Z,9.60
2018-03-16T04:34:03.380Z,15.55
2018-03-16T04:36:30.773Z,23.83
2018-03-16T04:38:58.181Z,22.20
2018-03-16T04:41:25.577Z,23.80
2018-03-16T04:43:52.976Z,18.10
2018-03-16T04:46:20.384Z,16.63
2018-03-16T04:48:47.781Z,14.23
2018-03-16T04:51:15.178Z,14.07
2018-03-16T04:53:42.584Z,10.57
2018-03-16T04:56:09.968Z,6.37
2018-03-16T04:58:37.357Z,5.00
2018-03-16T05:01:04.764Z,9.17
2018-03-16T05:03:32.152Z,5.33
2018-03-16T05:05:59.537Z,7.67
2018-03-16T05:08:26.945Z,5.20
2018-03-16T05:10:54.364Z,5.07
2018-03-16T05:13:21.737Z,5.20
2018-03-16T05:15:49.141Z,4.70
2018-03-16T05:18:16.532Z,4.33
2018-03-16T05:20:43.924Z,4.90
2018-03-16T05:23:11.324Z,7.30
2018-03-16T05:25:38.715Z,5.17
2018-03-16T05:28:06.100Z,5.03
2018-03-16T05:30:33.515Z,5.20
2018-03-16T05:33:00.905Z,7.70
2018-03-16T05:35:28.293Z,5.40
2018-03-16T05:37:55.697Z,5.80
2018-03-16T05:40:23.080Z,5.60
2018-03-16T05:42:50.481Z,6.37
2018-03-16T05:45:17.886Z,13.97
2018-03-16T05:47:45.272Z,5.90
2018-03-16T05:50:12.695Z,6.03
2018-03-16T05:52:40.100Z,5.77
2018-03-16T05:55:07.488Z,5.37
2018-03-16T05:57:34.876Z,5.80
2018-03-16T06:00:02.281Z,5.83
2018-03-16T06:02:29.673Z,5.40
2018-03-16T06:04:57.065Z,6.20
2018-03-16T06:07:24.468Z,6.00
2018-03-16T06:09:51.857Z,8.43
2018-03-16T06:12:19.244Z,5.70
2018-03-16T06:14:46.648Z,5.93
2018-03-16T06:17:14.040Z,6.23
2018-03-16T06:19:41.425Z,6.03
2018-03-16T06:22:08.834Z,7.80
2018-03-16T06:24:36.230Z,12.07
2018-03-16T06:27:03.633Z,6.90
2018-03-16T06:29:31.038Z,5.60
2018-03-16T06:31:58.428Z,10.10
2018-03-16T06:34:25.812Z,6.93
2018-03-16T06:36:53.231Z,6.70
2018-03-16T06:39:20.632Z,6.10
2018-03-16T06:41:48.005Z,5.73
2018-03-16T06:44:15.411Z,8.23
2018-03-16T06:46:43.834Z,10.07
2018-03-16T06:49:11.212Z,6.17
2018-03-16T06:51:38.618Z,7.53
2018-03-16T06:54:06.016Z,16.47
2018-03-16T06:56:33.410Z,9.53
2018-03-16T06:59:00.817Z,6.20
2018-03-16T07:01:28.215Z,7.33
2018-03-16T07:03:55.604Z,8.87
2018-03-16T07:06:23.052Z,16.80
2018-03-16T07:08:50.428Z,5.80
2018-03-16T07:11:17.819Z,8.40
2018-03-16T07:13:45.224Z,6.60
2018-03-16T07:16:12.608Z,5.60
2018-03-16T07:18:40.008Z,5.00
2018-03-16T07:21:07.411Z,11.03
2018-03-16T07:23:34.818Z,5.33
2018-03-16T07:26:02.199Z,5.57
2018-03-16T07:28:29.609Z,6.50
2018-03-16T07:30:57.045Z,5.60
2018-03-16T07:33:24.393Z,5.37
2018-03-16T07:35:51.841Z,9.10
2018-03-16T07:38:19.234Z,6.37
2018-03-16T07:40:46.635Z,15.33
2018-03-16T07:43:14.040Z,5.70
2018-03-16T07:45:47.185Z,5.53
2018-03-16T07:48:14.589Z,6.60
2018-03-16T07:50:41.984Z,5.77
2018-03-16T07:53:09.381Z,7.80
2018-03-16T07:55:36.785Z,5.27
2018-03-16T07:58:04.177Z,5.87
2018-03-16T08:00:31.572Z,4.97
2018-03-16T08:02:58.973Z,6.73
2018-03-16T08:05:26.366Z,5.80
2018-03-16T08:07:53.750Z,5.20
2018-03-16T08:10:21.162Z,5.50
2018-03-16T08:12:48.563Z,25.77
2018-03-16T08:15:15.993Z,4.90
2018-03-16T08:17:43.348Z,5.43
2018-03-16T08:20:10.753Z,4.53
2018-03-16T08:22:38.137Z,4.60
2018-03-16T08:25:05.561Z,4.53
2018-03-16T08:27:33.049Z,4.73
2018-03-16T08:30:00.433Z,4.63
2018-03-16T08:32:27.841Z,4.33
2018-03-16T08:34:55.249Z,4.90
2018-03-16T08:37:22.632Z,4.17
2018-03-16T08:39:50.055Z,5.37
2018-03-16T08:42:17.439Z,5.90
2018-03-16T08:44:44.841Z,4.07
2018-03-16T08:47:12.245Z,3.77
2018-03-16T08:49:39.637Z,3.70
2018-03-16T08:52:07.020Z,3.83
2018-03-16T08:54:34.469Z,5.13
2018-03-16T08:57:02.746Z,6.27
2018-03-16T08:59:30.142Z,5.40
2018-03-16T09:01:57.562Z,17.07
2018-03-16T09:04:24.954Z,7.73
2018-03-16T09:06:52.345Z,5.97
2018-03-16T09:09:19.761Z,13.83
2018-03-16T09:11:47.165Z,17.40
2018-03-16T09:14:14.560Z,19.57
2018-03-16T09:16:41.964Z,6.60
2018-03-16T09:19:09.365Z,16.47
2018-03-16T09:21:36.774Z,14.20
2018-03-16T09:24:04.180Z,11.37
2018-03-16T09:26:31.588Z,10.27
2018-03-16T09:28:59.005Z,8.77
2018-03-16T09:31:26.511Z,4.87
2018-03-16T09:33:53.901Z,9.03
2018-03-16T09:36:21.294Z,16.40
2018-03-16T09:38:48.712Z,16.30
2018-03-16T09:41:16.103Z,14.37
2018-03-16T09:43:43.501Z,13.70
2018-03-16T09:46:10.914Z,8.30
2018-03-16T09:48:38.304Z,13.00
2018-03-16T09:51:05.718Z,11.10
2018-03-16T09:53:33.253Z,7.20
2018-03-16T09:56:00.636Z,5.43
2018-03-16T09:58:28.062Z,13.90
2018-03-16T10:00:55.457Z,9.97
2018-03-16T10:03:22.852Z,11.60
2018-03-16T10:05:50.252Z,14.30
2018-03-16T10:08:17.674Z,9.70
2018-03-16T10:10:45.069Z,18.40
2018-03-16T10:13:12.468Z,12.30
2018-03-16T10:15:39.891Z,22.53
2018-03-16T10:18:07.280Z,10.97
2018-03-16T10:20:34.675Z,10.33
2018-03-16T10:23:02.095Z,7.43
2018-03-16T10:25:29.472Z,9.03
2018-03-16T10:27:56.869Z,11.47
2018-03-16T10:30:24.290Z,18.70
2018-03-16T10:32:51.685Z,9.80
2018-03-16T10:35:19.089Z,10.17
2018-03-16T10:37:46.533Z,11.07
2018-03-16T10:40:13.925Z,7.03
2018-03-16T10:42:41.326Z,14.50
2018-03-16T10:45:08.739Z,5.97
2018-03-16T10:47:36.140Z,10.00
2018-03-16T10:50:03.536Z,14.93
2018-03-16T10:52:30.954Z,6.47
2018-03-16T10:54:58.348Z,4.57
2018-03-16T10:57:25.736Z,4.43
2018-03-16T10:59:53.148Z,7.57
2018-03-16T11:02:20.546Z,9.20
2018-03-16T11:04:53.496Z,11.90
2018-03-16T11:07:20.893Z,11.17
2018-03-16T11:09:48.287Z,8.97
2018-03-16T11:12:15.701Z,11.27
2018-03-16T11:14:43.145Z,10.33
2018-03-16T11:17:10.545Z,10.37
2018-03-16T11:19:37.954Z,9.10
2018-03-16T11:22:05.348Z,15.93
2018-03-16T11:24:32.781Z,16.03
2018-03-16T11:27:00.197Z,9.73
2018-03-16T11:29:27.597Z,6.20
2018-03-16T11:31:54.987Z,8.03
2018-03-16T11:34:22.397Z,6.53
2018-03-16T11:36:49.793Z,11.23
2018-03-16T11:39:17.199Z,14.60
2018-03-16T11:41:44.617Z,10.83
2018-03-16T11:44:12.009Z,7.73
2018-03-16T11:46:39.404Z,13.40
2018-03-16T11:49:06.821Z,16.57
2018-03-16T11:51:34.228Z,12.53
2018-03-16T11:54:01.621Z,7.90
2018-03-16T11:56:29.027Z,6.57
2018-03-16T11:58:56.443Z,7.30
2018-03-16T12:01:23.833Z,10.13
2018-03-16T12:03:51.241Z,5.13
2018-03-16T12:06:18.632Z,5.23
2018-03-16T12:08:46.021Z,6.30
2018-03-16T12:11:13.437Z,28.03
2018-03-16T12:13:40.833Z,11.03
2018-03-16T12:16:08.220Z,4.90
2018-03-16T12:18:35.635Z,4.00
2018-03-16T12:21:03.024Z,7.10
2018-03-16T12:23:30.424Z,5.60
2018-03-16T12:25:57.837Z,10.33
2018-03-16T12:28:25.227Z,7.20
2018-03-16T12:30:52.643Z,10.87
2018-03-16T12:33:20.039Z,9.40
2018-03-16T12:35:47.433Z,11.20
2018-03-16T12:38:14.828Z,6.07
2018-03-16T12:40:42.235Z,5.33
2018-03-16T12:43:09.629Z,4.23
2018-03-16T12:45:37.033Z,12.00
2018-03-16T12:48:04.443Z,10.93
2018-03-16T12:50:31.836Z,10.50
2018-03-16T12:52:59.234Z,5.43
2018-03-16T12:55:26.653Z,8.93
2018-03-16T12:57:54.053Z,4.40
2018-03-16T13:00:21.449Z,11.23
2018-03-16T13:02:48.865Z,6.63
2018-03-16T13:05:16.265Z,6.00
2018-03-16T13:07:43.744Z,6.50
2018-03-16T13:10:11.149Z,7.40
2018-03-16T13:12:38.539Z,8.97
2018-03-16T13:15:05.939Z,7.33
2018-03-16T13:17:33.357Z,10.13
2018-03-16T13:20:00.756Z,8.20
2018-03-16T13:22:28.153Z,6.53
2018-03-16T13:24:55.571Z,8.30
2018-03-16T13:27:22.968Z,7.27
2018-03-16T13:29:50.373Z,11.10
2018-03-16T13:32:17.793Z,7.13
2018-03-16T13:34:45.294Z,18.17
2018-03-16T13:37:12.669Z,9.23
2018-03-16T13:39:40.120Z,9.83
2018-03-16T13:42:07.512Z,10.03
2018-03-16T13:44:34.909Z,10.67
2018-03-16T13:47:02.323Z,8.10
2018-03-16T13:49:29.712Z,6.83
2018-03-16T13:51:57.160Z,6.60
2018-03-16T13:54:24.518Z,9.60
2018-03-16T13:56:51.926Z,11.13
2018-03-16T13:59:19.312Z,9.23
2018-03-16T14:01:46.725Z,8.57
2018-03-16T14:04:14.129Z,13.87
2018-03-16T14:06:41.530Z,7.77
2018-03-16T14:09:09.150Z,10.33
2018-03-16T14:11:36.538Z,13.33
2018-03-16T14:14:03.943Z,10.30
2018-03-16T14:16:31.360Z,7.60
2018-03-16T14:18:58.759Z,4.67
2018-03-16T14:21:26.149Z,5.67
2018-03-16T14:23:53.566Z,10.00
2018-03-16T14:26:20.960Z,8.37
2018-03-16T14:28:48.360Z,6.47
2018-03-16T14:31:15.777Z,12.40
2018-03-16T14:33:43.172Z,26.27
2018-03-16T14:36:10.570Z,11.87
2018-03-16T14:38:38.067Z,10.93
2018-03-16T14:41:05.458Z,5.43
2018-03-16T14:43:32.848Z,11.63
2018-03-16T14:46:00.269Z,6.73
2018-03-16T14:48:27.743Z,7.60
2018-03-16T14:50:55.131Z,10.27
2018-03-16T14:53:22.533Z,8.63
2018-03-16T14:55:49.938Z,10.93
2018-03-16T14:58:17.332Z,5.80
2018-03-16T15:00:44.771Z,11.57
2018-03-16T15:03:12.174Z,5.57
2018-03-16T15:05:39.573Z,4.40
2018-03-16T15:08:06.982Z,6.87
2018-03-16T15:10:34.391Z,8.17
2018-03-16T15:13:01.768Z,9.17
2018-03-16T15:15:29.169Z,7.27
2018-03-16T15:17:56.565Z,5.63
2018-03-16T15:20:23.962Z,9.70
2018-03-16T15:22:51.377Z,9.77
2018-03-16T15:25:18.812Z,13.33
2018-03-16T15:27:46.198Z,7.97
2018-03-16T15:30:13.610Z,8.00
2018-03-16T15:32:41.030Z,5.23
2018-03-16T15:35:08.413Z,9.43
2018-03-16T15:37:35.820Z,5.63
2018-03-16T15:40:03.576Z,6.00
2018-03-16T15:42:30.962Z,9.20
2018-03-16T15:44:58.368Z,5.50
2018-03-16T15:47:25.769Z,7.27
2018-03-16T15:49:53.152Z,6.40
2018-03-16T15:52:20.613Z,8.70
2018-03-16T15:54:48.009Z,11.67
2018-03-16T15:57:15.405Z,9.93
2018-03-16T15:59:42.823Z,6.13
2018-03-16T16:02:10.217Z,10.43
2018-03-16T16:04:37.626Z,10.83
2018-03-16T16:07:05.124Z,10.53
2018-03-16T16:09:32.505Z,10.80
2018-03-16T16:11:59.905Z,15.90
2018-03-16T16:14:27.325Z,12.00
2018-03-16T16:16:54.716Z,9.23
2018-03-16T16:19:22.113Z,7.50
2018-03-16T16:21:49.562Z,15.30
2018-03-16T16:24:16.944Z,10.60
2018-03-16T16:26:44.346Z,8.20
2018-03-16T16:29:11.753Z,16.87
2018-03-16T16:31:39.154Z,6.47
2018-03-16T16:34:06.549Z,11.47
2018-03-16T16:36:33.961Z,8.30
2018-03-16T16:39:01.405Z,12.90
2018-03-16T16:41:28.758Z,8.07
2018-03-16T16:43:56.168Z,6.73
2018-03-16T16:46:24.516Z,6.87
2018-03-16T16:48:51.908Z,10.77
2018-03-16T16:51:19.370Z,8.23
2018-03-16T16:53:46.750Z,7.17
2018-03-16T16:56:14.215Z,7.93
2018-03-16T16:58:41.631Z,9.80
2018-03-16T17:01:09.025Z,16.33
2018-03-16T17:03:36.432Z,17.40
2018-03-16T17:06:03.841Z,7.60
2018-03-16T17:08:31.234Z,9.10
2018-03-16T17:10:58.634Z,10.27
2018-03-16T17:13:26.064Z,7.03
2018-03-16T17:15:53.457Z,5.80
2018-03-16T17:18:20.853Z,6.80
2018-03-16T17:20:48.259Z,11.73
2018-03-16T17:23:15.759Z,7.83
2018-03-16T17:25:43.141Z,7.60
2018-03-16T17:28:10.578Z,14.13
2018-03-16T17:30:38.022Z,17.70
2018-03-16T17:33:05.418Z,7.67
2018-03-16T17:35:32.840Z,14.43
2018-03-16T17:38:00.240Z,11.97
2018-03-16T17:40:27.640Z,14.37
2018-03-16T17:42:55.049Z,9.20
2018-03-16T17:45:22.449Z,19.27
2018-03-16T17:47:49.857Z,16.77
2018-03-16T17:50:17.265Z,24.87
2018-03-16T17:52:44.671Z,112.20
2018-03-16T17:55:12.078Z,102.90
2018-03-16T17:57:39.501Z,106.20
2018-03-16T18:00:06.900Z,55.70
2018-03-16T18:02:34.347Z,28.00
2018-03-16T18:05:01.761Z,23.83
2018-03-16T18:07:29.148Z,13.63
2018-03-16T18:09:56.559Z,10.63
2018-03-16T18:12:23.990Z,27.63
2018-03-16T18:14:51.380Z,12.07
2018-03-16T18:17:18.794Z,5.17
2018-03-16T18:19:46.208Z,11.77
2018-03-16T18:22:15.762Z,12.17
2018-03-16T18:24:43.258Z,9.83
2018-03-16T18:27:10.669Z,11.93
2018-03-16T18:29:38.077Z,10.27
2018-03-16T18:32:05.475Z,8.10
2018-03-16T18:34:32.880Z,7.87
2018-03-16T18:37:00.273Z,14.00
2018-03-16T18:39:27.791Z,18.13
2018-03-16T18:41:55.399Z,10.87
2018-03-16T18:44:22.888Z,12.13
2018-03-16T18:46:50.443Z,12.60
2018-03-16T18:49:18.206Z,10.43
2018-03-16T18:51:45.853Z,15.43
2018-03-16T18:54:13.579Z,9.47
2018-03-16T18:56:41.247Z,9.50
2018-03-16T18:59:09.033Z,10.50
2018-03-16T19:01:36.900Z,9.47
2018-03-16T19:04:04.809Z,9.50
2018-03-16T19:06:32.718Z,7.40
2018-03-16T19:09:00.200Z,12.97
2018-03-16T19:11:28.175Z,8.87
2018-03-16T19:13:56.492Z,12.00
2018-03-16T19:16:24.771Z,12.70
2018-03-16T19:18:53.227Z,8.77
2018-03-16T19:21:21.634Z,7.20
2018-03-16T19:23:49.924Z,7.83
2018-03-16T19:26:18.334Z,10.77
2018-03-16T19:28:46.623Z,12.50
2018-03-16T19:31:14.846Z,9.40
2018-03-16T19:33:43.222Z,8.30
2018-03-16T19:36:11.534Z,9.17
2018-03-16T19:38:39.865Z,11.83
2018-03-16T19:41:08.240Z,12.50
2018-03-16T19:43:36.519Z,7.30
2018-03-16T19:46:04.792Z,9.67
2018-03-16T19:48:33.226Z,12.70
2018-03-16T19:51:01.607Z,8.73
2018-03-16T19:53:29.915Z,16.20
2018-03-16T19:55:58.448Z,38.17
2018-03-16T19:58:27.555Z,18.83
2018-03-16T20:00:55.906Z,24.50
2018-03-16T20:03:24.294Z,21.43
2018-03-16T20:05:52.582Z,14.87
2018-03-16T20:08:20.896Z,22.53
2018-03-16T20:10:49.550Z,20.07
2018-03-16T20:13:17.812Z,16.90
2018-03-16T20:15:46.064Z,15.07
2018-03-16T20:18:14.541Z,26.20
2018-03-16T20:20:42.802Z,11.97
2018-03-16T20:23:11.099Z,18.10
2018-03-16T20:25:40.398Z,12.00
2018-03-16T20:28:08.799Z,21.27
2018-03-16T20:30:37.043Z,15.63
2018-03-16T20:33:06.039Z,16.37
2018-03-16T20:35:34.334Z,19.60
2018-03-16T20:38:02.617Z,17.67
2018-03-16T20:40:31.008Z,14.67
2018-03-16T20:42:59.316Z,14.63
2018-03-16T20:45:27.619Z,14.47
2018-03-16T20:47:56.048Z,24.60
2018-03-16T20:50:24.383Z,21.20
2018-03-16T20:52:52.746Z,21.50
2018-03-16T20:55:21.129Z,20.53
2018-03-16T20:57:49.490Z,20.13
2018-03-16T21:00:17.801Z,23.25
2018-03-16T21:02:46.180Z,18.53
2018-03-16T21:05:15.403Z,19.03
2018-03-16T21:07:44.191Z,21.70
2018-03-16T21:10:12.575Z,23.50
2018-03-16T21:12:40.908Z,25.47
2018-03-16T21:15:09.300Z,31.20
2018-03-16T21:17:37.702Z,23.80
2018-03-16T21:20:06.214Z,31.17
2018-03-16T21:22:34.581Z,25.60
2018-03-16T21:25:03.488Z,18.23
2018-03-16T21:27:31.821Z,21.40
2018-03-16T21:30:00.144Z,20.93
2018-03-16T21:32:28.551Z,34.83
2018-03-16T21:34:56.856Z,31.45
2018-03-16T21:37:26.120Z,27.10
2018-03-16T21:39:54.543Z,29.53
2018-03-16T21:42:22.880Z,25.93
2018-03-16T21:44:51.143Z,21.93
2018-03-16T21:47:19.473Z,24.60
2018-03-16T21:49:48.406Z,22.02
2018-03-16T21:52:16.742Z,30.83
2018-03-16T21:54:45.102Z,33.20
2018-03-16T21:57:13.393Z,28.95
2018-03-16T21:59:41.691Z,29.52
2018-03-16T22:02:10.057Z,23.02
2018-03-16T22:04:38.390Z,24.80
2018-03-16T22:07:06.610Z,27.23
2018-03-16T22:09:34.967Z,29.00
2018-03-16T22:12:03.272Z,28.17
2018-03-16T22:14:31.564Z,28.47
2018-03-16T22:16:59.821Z,41.03
2018-03-16T22:19:28.044Z,41.80
2018-03-16T22:21:56.078Z,27.13
2018-03-16T22:24:24.086Z,39.40
2018-03-16T22:26:51.792Z,24.85
2018-03-16T22:29:19.382Z,26.90
2018-03-16T22:31:46.934Z,28.58
2018-03-16T22:34:14.410Z,26.08
2018-03-16T22:36:41.839Z,42.75
2018-03-16T22:39:09.369Z,30.65
2018-03-16T22:41:36.820Z,40.05
2018-03-16T22:44:04.226Z,36.25
2018-03-16T22:46:31.649Z,83.75
2018-03-16T22:48:59.048Z,62.67
2018-03-16T22:51:26.460Z,68.75
2018-03-16T22:53:53.885Z,78.43
2018-03-16T22:56:21.303Z,94.78
2018-03-16T22:58:48.765Z,140.27
2018-03-16T23:01:16.196Z,157.52
2018-03-16T23:03:43.626Z,158.75
2018-03-16T23:06:11.062Z,133.12
2018-03-16T23:08:38.501Z,127.68
2018-03-16T23:11:05.923Z,143.93
2018-03-16T23:13:33.327Z,91.40
2018-03-16T23:16:00.757Z,111.32
2018-03-16T23:18:28.173Z,52.50
2018-03-16T23:20:55.597Z,39.17
2018-03-16T23:23:23.033Z,60.95
2018-03-16T23:25:50.439Z,67.62
2018-03-16T23:28:17.948Z,54.92
2018-03-16T23:30:45.425Z,39.45
2018-03-16T23:33:12.926Z,34.50
2018-03-16T23:35:40.322Z,38.67
2018-03-16T23:38:07.740Z,29.08
2018-03-16T23:40:35.165Z,29.50
2018-03-16T23:43:02.578Z,32.30
2018-03-16T23:45:29.996Z,33.88
2018-03-16T23:47:57.421Z,32.35
2018-03-16T23:50:24.825Z,29.70
2018-03-16T23:52:52.266Z,20.58
2018-03-16T23:55:19.685Z,23.70
2018-03-16T23:57:47.092Z,31.35
